createdAt,value
2019-03-09T00:01:34.185Z,99670.66
2019-03-09T00:03:41.135Z,99667.95
2019-03-09T00:05:47.826Z,99665.59
2019-03-09T00:07:54.481Z,99671.20
2019-03-09T00:10:01.132Z,99670.61
2019-03-09T00:12:09.412Z,99680.06
2019-03-09T00:14:16.138Z,99671.19
2019-03-09T00:16:22.795Z,99679.41
2019-03-09T00:18:30.558Z,99678.83
2019-03-09T00:20:37.213Z,99676.16
2019-03-09T00:22:45.511Z,99680.84
2019-03-09T00:24:53.845Z,99684.25
2019-03-09T00:27:05.092Z,99688.08
2019-03-09T00:29:16.366Z,99690.18
2019-03-09T00:31:40.765Z,99693.97
2019-03-09T00:33:47.474Z,99691.69
2019-03-09T00:35:54.199Z,99695.09
2019-03-09T00:38:00.962Z,99694.95
2019-03-09T00:40:10.995Z,99696.59
2019-03-09T00:42:17.663Z,99700.41
2019-03-09T00:44:24.415Z,99703.86
2019-03-09T00:46:31.142Z,99708.16
2019-03-09T00:48:38.172Z,99702.37
2019-03-09T00:50:45.857Z,99704.89
2019-03-09T00:52:52.503Z,99696.56
2019-03-09T00:54:59.243Z,99695.07
2019-03-09T00:57:05.982Z,99692.78
2019-03-09T00:59:12.717Z,99692.67
2019-03-09T01:01:19.365Z,99692.16
2019-03-09T01:03:26.148Z,99699.44
2019-03-09T01:05:32.805Z,99695.00
2019-03-09T01:07:39.464Z,99694.05
2019-03-09T01:09:46.152Z,99694.42
2019-03-09T01:11:52.872Z,99696.94
2019-03-09T01:13:59.539Z,99696.42
2019-03-09T01:16:06.215Z,99705.66
2019-03-09T01:18:12.875Z,99712.70
2019-03-09T01:20:19.603Z,99704.98
2019-03-09T01:22:26.353Z,99705.59
2019-03-09T01:24:33.014Z,99700.52
2019-03-09T01:26:39.756Z,99704.85
2019-03-09T01:28:46.426Z,99712.75
2019-03-09T01:30:53.166Z,99708.00
2019-03-09T01:32:59.820Z,99707.62
2019-03-09T01:35:07.304Z,99703.84
2019-03-09T01:37:13.961Z,99709.21
2019-03-09T01:39:20.617Z,99714.08
2019-03-09T01:41:27.298Z,99713.70
2019-03-09T01:43:34.026Z,99713.80
2019-03-09T01:45:40.700Z,99715.58
2019-03-09T01:47:47.374Z,99712.55
2019-03-09T01:49:54.026Z,99708.11
2019-03-09T01:52:00.674Z,99711.09
2019-03-09T01:54:07.439Z,99705.77
2019-03-09T01:56:14.144Z,99712.68
2019-03-09T01:58:20.829Z,99709.63
2019-03-09T02:00:27.595Z,99705.20
2019-03-09T02:02:34.245Z,99708.61
2019-03-09T02:04:40.900Z,99698.06
2019-03-09T02:06:47.589Z,99698.43
2019-03-09T02:08:54.245Z,99697.44
2019-03-09T02:11:00.914Z,99705.59
2019-03-09T02:13:07.712Z,99704.98
2019-03-09T02:15:16.536Z,99707.06
2019-03-09T02:17:23.185Z,99708.22
2019-03-09T02:19:29.883Z,99706.77
2019-03-09T02:21:36.610Z,99700.08
2019-03-09T02:23:43.269Z,99697.31
2019-03-09T02:25:49.950Z,99696.80
2019-03-09T02:27:56.621Z,99695.42
2019-03-09T02:30:03.440Z,99690.52
2019-03-09T02:32:10.218Z,99692.61
2019-03-09T02:34:16.874Z,99694.70
2019-03-09T02:36:23.530Z,99688.50
2019-03-09T02:38:34.774Z,99697.22
2019-03-09T02:40:41.511Z,99692.81
2019-03-09T02:42:48.167Z,99696.26
2019-03-09T02:44:54.837Z,99697.09
2019-03-09T02:47:01.559Z,99692.34
2019-03-09T02:49:08.282Z,99690.20
2019-03-09T02:51:15.033Z,99691.10
2019-03-09T02:53:21.771Z,99693.77
2019-03-09T02:55:28.441Z,99690.73
2019-03-09T02:57:35.102Z,99694.66
2019-03-09T02:59:41.772Z,99688.08
2019-03-09T03:01:52.761Z,99681.53
2019-03-09T03:03:59.447Z,99678.45
2019-03-09T03:06:06.174Z,99679.70
2019-03-09T03:08:12.833Z,99676.58
2019-03-09T03:10:19.634Z,99673.50
2019-03-09T03:12:26.279Z,99674.33
2019-03-09T03:14:32.933Z,99671.67
2019-03-09T03:16:39.681Z,99675.05
2019-03-09T03:18:46.345Z,99688.54
2019-03-09T03:20:53.009Z,99688.47
2019-03-09T03:22:59.712Z,99684.14
2019-03-09T03:25:09.155Z,99682.73
2019-03-09T03:27:15.875Z,99684.88
2019-03-09T03:29:23.552Z,99685.23
2019-03-09T03:31:30.204Z,99684.34
2019-03-09T03:33:36.942Z,99685.66
2019-03-09T03:35:43.633Z,99676.52
2019-03-09T03:37:50.225Z,99680.91
2019-03-09T03:39:57.021Z,99676.67
2019-03-09T03:42:03.805Z,99680.22
2019-03-09T03:44:10.578Z,99685.91
2019-03-09T03:46:17.245Z,99689.95
2019-03-09T03:48:23.924Z,99687.48
2019-03-09T03:50:30.678Z,99691.10
2019-03-09T03:52:37.377Z,99685.66
2019-03-09T03:54:44.077Z,99672.83
2019-03-09T03:56:50.816Z,99673.54
2019-03-09T03:58:57.581Z,99673.75
2019-03-09T04:01:04.328Z,99669.23
2019-03-09T04:03:10.983Z,99658.52
2019-03-09T04:05:17.710Z,99657.39
2019-03-09T04:07:24.588Z,99656.20
2019-03-09T04:09:31.239Z,99657.97
2019-03-09T04:11:38.093Z,99660.16
2019-03-09T04:13:44.783Z,99655.73
2019-03-09T04:15:51.545Z,99665.70
2019-03-09T04:17:58.230Z,99663.05
2019-03-09T04:20:07.031Z,99663.00
2019-03-09T04:22:13.772Z,99652.87
2019-03-09T04:24:20.406Z,99659.83
2019-03-09T04:26:27.162Z,99657.63
2019-03-09T04:28:33.819Z,99653.70
2019-03-09T04:30:40.480Z,99651.94
2019-03-09T04:32:48.181Z,99651.94
2019-03-09T04:34:54.840Z,99648.86
2019-03-09T04:37:02.598Z,99641.81
2019-03-09T04:39:09.346Z,99641.81
2019-03-09T04:41:16.100Z,99631.78
2019-03-09T04:43:22.751Z,99631.34
2019-03-09T04:45:29.509Z,99632.19
2019-03-09T04:47:36.230Z,99626.87
2019-03-09T04:49:42.878Z,99635.13
2019-03-09T04:51:49.556Z,99640.35
2019-03-09T04:53:56.206Z,99638.20
2019-03-09T04:56:02.871Z,99633.86
2019-03-09T04:58:09.618Z,99633.49
2019-03-09T05:00:17.151Z,99629.63
2019-03-09T05:02:23.816Z,99625.30
2019-03-09T05:04:39.977Z,99620.12
2019-03-09T05:06:46.636Z,99618.86
2019-03-09T05:09:00.140Z,99614.94
2019-03-09T05:11:10.003Z,99611.11
2019-03-09T05:13:30.800Z,99615.03
2019-03-09T05:15:37.464Z,99613.34
2019-03-09T05:17:44.226Z,99613.44
2019-03-09T05:19:50.906Z,99616.89
2019-03-09T05:21:57.624Z,99609.94
2019-03-09T05:24:04.313Z,99621.34
2019-03-09T05:26:10.960Z,99627.03
2019-03-09T05:28:17.620Z,99625.26
2019-03-09T05:30:44.589Z,99624.41
2019-03-09T05:32:51.313Z,99629.27
2019-03-09T05:34:58.073Z,99630.20
2019-03-09T05:37:04.732Z,99628.52
2019-03-09T05:39:11.377Z,99626.41
2019-03-09T05:41:18.112Z,99630.02
2019-03-09T05:43:24.874Z,99622.30
2019-03-09T05:45:31.553Z,99622.91
2019-03-09T05:47:38.209Z,99619.72
2019-03-09T05:49:44.905Z,99620.92
2019-03-09T05:52:24.603Z,99621.18
2019-03-09T05:54:31.341Z,99618.36
2019-03-09T05:56:38.014Z,99619.53
2019-03-09T05:58:44.751Z,99621.89
2019-03-09T06:00:51.451Z,99617.97
2019-03-09T06:02:58.134Z,99611.89
2019-03-09T06:05:06.539Z,99604.05
2019-03-09T06:07:13.197Z,99594.00
2019-03-09T06:09:19.879Z,99596.19
2019-03-09T06:11:26.605Z,99582.22
2019-03-09T06:13:33.332Z,99573.14
2019-03-09T06:15:40.026Z,99576.41
2019-03-09T06:17:46.683Z,99577.88
2019-03-09T06:19:53.351Z,99583.69
2019-03-09T06:22:00.035Z,99585.45
2019-03-09T06:24:06.687Z,99578.07
2019-03-09T06:26:13.342Z,99577.94
2019-03-09T06:28:20.018Z,99580.03
2019-03-09T06:30:26.675Z,99573.91
2019-03-09T06:32:37.702Z,99571.48
2019-03-09T06:34:44.384Z,99567.53
2019-03-09T06:36:55.439Z,99571.23
2019-03-09T06:39:05.736Z,99565.76
2019-03-09T06:41:25.705Z,99553.31
2019-03-09T06:43:32.459Z,99553.96
2019-03-09T06:45:39.295Z,99548.20
2019-03-09T06:47:46.041Z,99551.37
2019-03-09T06:49:52.699Z,99548.39
2019-03-09T06:51:59.366Z,99548.55
2019-03-09T06:54:06.043Z,99547.34
2019-03-09T06:56:13.703Z,99544.63
2019-03-09T06:58:20.364Z,99542.00
2019-03-09T07:00:38.992Z,99536.76
2019-03-09T07:02:45.637Z,99527.19
2019-03-09T07:04:52.306Z,99525.09
2019-03-09T07:06:59.059Z,99528.27
2019-03-09T07:09:07.421Z,99518.63
2019-03-09T07:11:14.262Z,99525.36
2019-03-09T07:13:21.018Z,99506.81
2019-03-09T07:15:38.906Z,99509.98
2019-03-09T07:17:45.644Z,99502.59
2019-03-09T07:19:52.320Z,99499.03
2019-03-09T07:21:59.066Z,99494.83
2019-03-09T07:24:05.740Z,99483.10
2019-03-09T07:26:12.527Z,99481.45
2019-03-09T07:28:19.167Z,99475.91
2019-03-09T07:30:25.836Z,99478.25
2019-03-09T07:32:32.513Z,99472.70
2019-03-09T07:34:39.166Z,99474.51
2019-03-09T07:36:45.818Z,99476.93
2019-03-09T07:38:52.513Z,99469.39
2019-03-09T07:40:59.175Z,99467.81
2019-03-09T07:43:05.989Z,99468.84
2019-03-09T07:45:14.576Z,99469.00
2019-03-09T07:47:21.238Z,99462.37
2019-03-09T07:49:27.984Z,99458.52
2019-03-09T07:51:34.679Z,99446.03
2019-03-09T07:53:41.334Z,99442.55
2019-03-09T07:55:47.997Z,99432.42
2019-03-09T07:57:59.136Z,99433.77
2019-03-09T08:00:12.880Z,99430.23
2019-03-09T08:02:19.619Z,99420.13
2019-03-09T08:04:26.306Z,99414.37
2019-03-09T08:06:33.039Z,99414.38
2019-03-09T08:08:39.769Z,99417.05
2019-03-09T08:10:46.472Z,99418.80
2019-03-09T08:12:53.187Z,99408.70
2019-03-09T08:14:59.907Z,99413.48
2019-03-09T08:17:07.437Z,99405.56
2019-03-09T08:19:14.098Z,99400.31
2019-03-09T08:21:20.760Z,99405.53
2019-03-09T08:23:28.437Z,99408.51
2019-03-09T08:25:35.090Z,99399.30
2019-03-09T08:27:41.746Z,99389.23
2019-03-09T08:29:48.428Z,99386.57
2019-03-09T08:31:55.099Z,99388.78
2019-03-09T08:34:01.830Z,99395.86
2019-03-09T08:36:08.503Z,99382.27
2019-03-09T08:38:15.157Z,99380.55
2019-03-09T08:40:22.921Z,99384.50
2019-03-09T08:42:29.645Z,99370.00
2019-03-09T08:44:36.294Z,99361.64
2019-03-09T08:46:42.974Z,99367.77
2019-03-09T08:48:49.650Z,99351.94
2019-03-09T08:50:56.307Z,99358.09
2019-03-09T08:53:03.016Z,99356.31
2019-03-09T08:55:12.232Z,99351.89
2019-03-09T08:57:18.976Z,99336.48
2019-03-09T08:59:25.651Z,99330.33
2019-03-09T09:01:33.347Z,99323.76
2019-03-09T09:03:40.102Z,99325.58
2019-03-09T09:05:46.800Z,99328.66
2019-03-09T09:07:53.442Z,99317.68
2019-03-09T09:10:00.365Z,99315.46
2019-03-09T09:12:07.090Z,99307.53
2019-03-09T09:14:13.854Z,99293.44
2019-03-09T09:16:20.512Z,99298.65
2019-03-09T09:18:27.906Z,99301.23
2019-03-09T09:20:34.609Z,99292.90
2019-03-09T09:22:41.308Z,99284.85
2019-03-09T09:24:47.942Z,99283.91
2019-03-09T09:26:54.630Z,99266.36
2019-03-09T09:29:01.306Z,99267.25
2019-03-09T09:31:07.976Z,99253.97
2019-03-09T09:33:14.683Z,99255.71
2019-03-09T09:35:21.550Z,99248.73
2019-03-09T09:37:28.214Z,99241.32
2019-03-09T09:39:35.019Z,99250.59
2019-03-09T09:41:41.750Z,99237.81
2019-03-09T09:43:48.418Z,99232.03
2019-03-09T09:45:55.103Z,99224.55
2019-03-09T09:48:01.834Z,99212.20
2019-03-09T09:50:11.904Z,99210.53
2019-03-09T09:52:18.594Z,99201.28
2019-03-09T09:54:25.336Z,99207.87
2019-03-09T09:56:31.979Z,99199.45
2019-03-09T09:58:38.739Z,99189.30
2019-03-09T10:00:45.484Z,99184.47
2019-03-09T10:02:52.228Z,99175.44
2019-03-09T10:04:58.915Z,99176.47
2019-03-09T10:07:05.596Z,99168.16
2019-03-09T10:09:12.315Z,99165.94
2019-03-09T10:11:19.076Z,99159.05
2019-03-09T10:13:25.825Z,99152.53
2019-03-09T10:15:33.905Z,99156.75
2019-03-09T10:17:40.666Z,99155.03
2019-03-09T10:19:48.323Z,99144.91
2019-03-09T10:21:54.978Z,99143.33
2019-03-09T10:24:01.655Z,99129.16
2019-03-09T10:26:08.308Z,99122.02
2019-03-09T10:28:15.037Z,99108.97
2019-03-09T10:30:25.725Z,99110.48
2019-03-09T10:32:32.386Z,99103.88
2019-03-09T10:34:39.134Z,99092.26
2019-03-09T10:36:45.879Z,99072.05
2019-03-09T10:38:52.551Z,99070.09
2019-03-09T10:40:59.274Z,99064.23
2019-03-09T10:43:05.974Z,99057.38
2019-03-09T10:45:20.794Z,99047.05
2019-03-09T10:47:27.530Z,99042.25
2019-03-09T10:49:34.223Z,99028.30
2019-03-09T10:51:40.974Z,99032.14
2019-03-09T10:53:47.696Z,99022.95
2019-03-09T10:55:54.425Z,99015.08
2019-03-09T10:58:01.166Z,99006.22
2019-03-09T11:00:29.864Z,99007.78
2019-03-09T11:02:37.667Z,98994.13
2019-03-09T11:04:44.535Z,98992.81
2019-03-09T11:06:51.209Z,98988.50
2019-03-09T11:08:57.889Z,98986.98
2019-03-09T11:11:04.556Z,99006.22
2019-03-09T11:13:11.219Z,98978.24
2019-03-09T11:15:17.986Z,98984.44
2019-03-09T11:17:24.655Z,98993.50
2019-03-09T11:19:31.366Z,98983.98
2019-03-09T11:21:38.138Z,98969.52
2019-03-09T11:23:44.858Z,98967.13
2019-03-09T11:25:51.639Z,98952.98
2019-03-09T11:28:10.353Z,98952.86
2019-03-09T11:30:29.936Z,98946.97
2019-03-09T11:32:36.575Z,98951.21
2019-03-09T11:34:43.261Z,98942.33
2019-03-09T11:36:49.916Z,98924.16
2019-03-09T11:38:56.588Z,98923.86
2019-03-09T11:41:03.356Z,98929.09
2019-03-09T11:43:10.010Z,98923.67
2019-03-09T11:45:19.259Z,98916.61
2019-03-09T11:47:26.023Z,98920.74
2019-03-09T11:49:32.681Z,98906.09
2019-03-09T11:51:39.486Z,98904.77
2019-03-09T11:53:46.191Z,98900.40
2019-03-09T11:55:52.852Z,98898.94
2019-03-09T11:57:59.587Z,98889.48
2019-03-09T12:00:13.544Z,98883.22
2019-03-09T12:02:20.199Z,98881.84
2019-03-09T12:04:27.796Z,98865.38
2019-03-09T12:06:34.561Z,98852.67
2019-03-09T12:08:41.226Z,98847.91
2019-03-09T12:10:47.880Z,98848.59
2019-03-09T12:12:54.639Z,98844.70
2019-03-09T12:15:01.302Z,98840.51
2019-03-09T12:17:12.470Z,98835.27
2019-03-09T12:19:16.511Z,98821.22
2019-03-09T12:21:23.319Z,98822.19
2019-03-09T12:23:30.289Z,98813.38
2019-03-09T12:25:37.063Z,98818.59
2019-03-09T12:27:43.722Z,98808.58
2019-03-09T12:29:50.382Z,98801.75
2019-03-09T12:31:57.142Z,98804.36
2019-03-09T12:34:03.880Z,98806.27
2019-03-09T12:36:10.548Z,98805.22
2019-03-09T12:38:17.250Z,98792.13
2019-03-09T12:40:23.994Z,98781.05
2019-03-09T12:42:30.725Z,98780.16
2019-03-09T12:44:37.472Z,98784.55
2019-03-09T12:46:44.133Z,98764.29
2019-03-09T12:48:50.869Z,98775.20
2019-03-09T12:50:58.559Z,98757.08
2019-03-09T12:53:05.226Z,98745.09
2019-03-09T12:55:11.885Z,98749.41
2019-03-09T12:57:18.568Z,98735.16
2019-03-09T12:59:25.301Z,98730.55
2019-03-09T13:01:32.041Z,98721.95
2019-03-09T13:03:38.817Z,98726.33
2019-03-09T13:05:46.803Z,98727.70
2019-03-09T13:07:53.670Z,98724.32
2019-03-09T13:10:00.425Z,98748.69
2019-03-09T13:12:08.799Z,98758.98
2019-03-09T13:14:16.623Z,98764.97
2019-03-09T13:16:23.375Z,98778.38
2019-03-09T13:18:30.028Z,98814.36
2019-03-09T13:20:36.680Z,98808.08
2019-03-09T13:22:43.426Z,98818.80
2019-03-09T13:24:50.165Z,98817.20
2019-03-09T13:26:56.803Z,98818.11
2019-03-09T13:29:03.563Z,98813.81
2019-03-09T13:31:10.282Z,98810.31
2019-03-09T13:33:16.931Z,98813.86
2019-03-09T13:35:23.798Z,98819.56
2019-03-09T13:37:30.538Z,98811.66
2019-03-09T13:39:37.198Z,98813.42
2019-03-09T13:41:43.947Z,98806.00
2019-03-09T13:43:52.091Z,98813.04
2019-03-09T13:45:58.832Z,98823.14
2019-03-09T13:48:05.505Z,98820.50
2019-03-09T13:50:16.435Z,98829.27
2019-03-09T13:52:23.172Z,98821.39
2019-03-09T13:54:29.865Z,98817.03
2019-03-09T13:56:36.521Z,98817.47
2019-03-09T13:58:43.183Z,98813.48
2019-03-09T14:00:49.939Z,98810.88
2019-03-09T14:02:56.605Z,98823.56
2019-03-09T14:05:03.477Z,98812.16
2019-03-09T14:07:10.160Z,98807.31
2019-03-09T14:09:18.445Z,98820.40
2019-03-09T14:11:25.115Z,98811.67
2019-03-09T14:13:31.841Z,98794.15
2019-03-09T14:15:38.584Z,98792.38
2019-03-09T14:17:46.302Z,98799.39
2019-03-09T14:19:53.051Z,98800.25
2019-03-09T14:21:59.705Z,98801.13
2019-03-09T14:24:07.886Z,98804.64
2019-03-09T14:26:14.641Z,98797.19
2019-03-09T14:28:21.362Z,98806.36
2019-03-09T14:30:28.195Z,98801.13
2019-03-09T14:32:34.938Z,98795.02
2019-03-09T14:34:41.592Z,98792.42
2019-03-09T14:36:48.260Z,98793.77
2019-03-09T14:38:54.928Z,98781.06
2019-03-09T14:41:01.654Z,98804.28
2019-03-09T14:43:08.309Z,98791.59
2019-03-09T14:45:20.381Z,98789.39
2019-03-09T14:47:27.100Z,98796.39
2019-03-09T14:49:33.755Z,98793.80
2019-03-09T14:51:40.565Z,98794.65
2019-03-09T14:53:47.282Z,98779.77
2019-03-09T14:55:53.982Z,98778.89
2019-03-09T14:58:00.693Z,98789.39
2019-03-09T15:00:11.721Z,98806.91
2019-03-09T15:02:19.909Z,98800.79
2019-03-09T15:04:26.602Z,98799.91
2019-03-09T15:06:33.327Z,98809.98
2019-03-09T15:08:40.076Z,98811.70
2019-03-09T15:10:46.765Z,98824.34
2019-03-09T15:12:54.035Z,98831.79
2019-03-09T15:15:00.689Z,98819.48
2019-03-09T15:17:07.572Z,98827.73
2019-03-09T15:19:14.298Z,98826.65
2019-03-09T15:21:20.946Z,98847.45
2019-03-09T15:23:27.631Z,98854.75
2019-03-09T15:25:34.282Z,98839.25
2019-03-09T15:27:41.673Z,98833.00
2019-03-09T15:29:48.416Z,98831.07
2019-03-09T15:31:55.063Z,98824.82
2019-03-09T15:34:01.776Z,98804.30
2019-03-09T15:36:09.461Z,98792.45
2019-03-09T15:38:16.180Z,98793.72
2019-03-09T15:40:22.850Z,98790.20
2019-03-09T15:42:29.605Z,98792.37
2019-03-09T15:44:36.245Z,98792.84
2019-03-09T15:46:42.973Z,98787.28
2019-03-09T15:48:49.656Z,98785.99
2019-03-09T15:50:56.393Z,98793.86
2019-03-09T15:53:03.130Z,98803.90
2019-03-09T15:55:12.162Z,98807.41
2019-03-09T15:57:18.970Z,98813.09
2019-03-09T15:59:25.613Z,98817.06
2019-03-09T16:01:32.294Z,98813.16
2019-03-09T16:03:39.018Z,98818.00
2019-03-09T16:05:45.673Z,98821.58
2019-03-09T16:07:52.429Z,98824.73
2019-03-09T16:09:59.162Z,98819.97
2019-03-09T16:12:05.997Z,98818.75
2019-03-09T16:14:12.687Z,98827.06
2019-03-09T16:16:19.393Z,98839.35
2019-03-09T16:18:26.135Z,98831.55
2019-03-09T16:20:32.892Z,98840.73
2019-03-09T16:22:39.629Z,98852.12
2019-03-09T16:24:47.811Z,98848.63
2019-03-09T16:26:54.680Z,98849.96
2019-03-09T16:29:01.334Z,98849.06
2019-03-09T16:31:08.054Z,98853.41
2019-03-09T16:33:15.238Z,98853.83
2019-03-09T16:35:21.883Z,98851.20
2019-03-09T16:37:28.538Z,98818.02
2019-03-09T16:39:35.214Z,98798.34
2019-03-09T16:41:41.867Z,98795.71
2019-03-09T16:43:48.599Z,98796.05
2019-03-09T16:45:55.305Z,98809.13
2019-03-09T16:48:01.951Z,98805.19
2019-03-09T16:50:12.633Z,98798.61
2019-03-09T16:52:19.394Z,98793.80
2019-03-09T16:54:26.203Z,98797.30
2019-03-09T16:56:32.923Z,98803.00
2019-03-09T16:58:39.727Z,98802.98
2019-03-09T17:00:46.465Z,98799.92
2019-03-09T17:02:53.187Z,98794.20
2019-03-09T17:04:59.867Z,98791.98
2019-03-09T17:07:06.532Z,98791.48
2019-03-09T17:09:13.314Z,98793.61
2019-03-09T17:11:20.045Z,98795.71
2019-03-09T17:13:26.771Z,98793.92
2019-03-09T17:15:33.426Z,98792.53
2019-03-09T17:17:40.687Z,98796.40
2019-03-09T17:19:47.407Z,98789.80
2019-03-09T17:21:54.145Z,98787.12
2019-03-09T17:24:00.899Z,98781.80
2019-03-09T17:26:09.112Z,98788.75
2019-03-09T17:28:15.773Z,98787.80
2019-03-09T17:30:23.095Z,98787.75
2019-03-09T17:32:29.862Z,98793.39
2019-03-09T17:34:37.544Z,98795.97
2019-03-09T17:36:44.298Z,98799.42
2019-03-09T17:38:50.965Z,98795.91
2019-03-09T17:40:57.622Z,98793.68
2019-03-09T17:43:04.407Z,98803.64
2019-03-09T17:45:22.815Z,98802.77
2019-03-09T17:47:29.551Z,98804.92
2019-03-09T17:49:36.306Z,98798.37
2019-03-09T17:51:43.036Z,98795.33
2019-03-09T17:53:49.748Z,98796.20
2019-03-09T17:55:56.502Z,98794.42
2019-03-09T17:58:03.231Z,98796.19
2019-03-09T18:00:26.647Z,98791.36
2019-03-09T18:02:33.410Z,98785.69
2019-03-09T18:04:40.134Z,98785.62
2019-03-09T18:06:46.795Z,98787.33
2019-03-09T18:08:53.544Z,98785.10
2019-03-09T18:11:09.578Z,98786.41
2019-03-09T18:13:16.325Z,98779.02
2019-03-09T18:15:23.023Z,98775.95
2019-03-09T18:17:29.765Z,98772.02
2019-03-09T18:19:36.428Z,98762.42
2019-03-09T18:21:43.244Z,98759.81
2019-03-09T18:23:49.965Z,98757.20
2019-03-09T18:25:56.695Z,98755.86
2019-03-09T18:28:03.447Z,98747.55
2019-03-09T18:30:12.584Z,98746.25
2019-03-09T18:32:18.372Z,98748.00
2019-03-09T18:34:26.560Z,98748.86
2019-03-09T18:36:33.211Z,98745.37
2019-03-09T18:38:40.371Z,98744.89
2019-03-09T18:40:47.132Z,98735.30
2019-03-09T18:42:53.787Z,98731.78
2019-03-09T18:45:00.519Z,98727.41
2019-03-09T18:47:07.743Z,98726.55
2019-03-09T18:49:14.390Z,98719.59
2019-03-09T18:51:21.056Z,98717.00
2019-03-09T18:53:27.821Z,98717.88
2019-03-09T18:55:35.480Z,98715.27
2019-03-09T18:57:42.199Z,98709.20
2019-03-09T18:59:50.185Z,98712.70
2019-03-09T19:01:56.905Z,98701.39
2019-03-09T19:04:03.633Z,98694.00
2019-03-09T19:06:11.399Z,98697.06
2019-03-09T19:08:18.241Z,98697.94
2019-03-09T19:10:25.560Z,98699.25
2019-03-09T19:12:32.305Z,98687.95
2019-03-09T19:14:41.294Z,98691.03
2019-03-09T19:16:47.474Z,98680.14
2019-03-09T19:18:54.229Z,98677.53
2019-03-09T19:21:02.048Z,98678.84
2019-03-09T19:23:08.790Z,98681.43
2019-03-09T19:25:16.549Z,98684.05
2019-03-09T19:27:23.775Z,98677.52
2019-03-09T19:29:31.437Z,98668.38
2019-03-09T19:31:39.999Z,98663.58
2019-03-09T19:33:46.653Z,98661.44
2019-03-09T19:35:54.836Z,98661.44
2019-03-09T19:38:01.630Z,98664.08
2019-03-09T19:40:17.281Z,98658.84
2019-03-09T19:42:24.018Z,98662.78
2019-03-09T19:44:30.776Z,98651.11
2019-03-09T19:46:39.042Z,98662.05
2019-03-09T19:48:45.701Z,98656.80
2019-03-09T19:50:52.461Z,98653.34
2019-03-09T19:52:59.542Z,98654.67
2019-03-09T19:55:08.743Z,98651.63
2019-03-09T19:57:16.897Z,98650.31
2019-03-09T19:59:23.621Z,98644.20
2019-03-09T20:01:30.381Z,98640.69
2019-03-09T20:03:39.307Z,98643.30
2019-03-09T20:05:46.037Z,98641.06
2019-03-09T20:07:52.778Z,98627.93
2019-03-09T20:10:01.549Z,98623.07
2019-03-09T20:12:08.565Z,98613.86
2019-03-09T20:14:15.221Z,98613.31
2019-03-09T20:16:21.970Z,98599.75
2019-03-09T20:18:28.696Z,98593.59
2019-03-09T20:20:35.425Z,98597.50
2019-03-09T20:22:42.115Z,98607.52
2019-03-09T20:24:50.119Z,98595.77
2019-03-09T20:26:56.782Z,98604.14
2019-03-09T20:29:04.142Z,98593.77
2019-03-09T20:31:12.364Z,98591.20
2019-03-09T20:33:19.083Z,98594.75
2019-03-09T20:35:26.545Z,98589.11
2019-03-09T20:37:34.909Z,98580.45
2019-03-09T20:39:41.575Z,98577.87
2019-03-09T20:41:48.326Z,98569.61
2019-03-09T20:43:54.969Z,98565.28
2019-03-09T20:46:04.173Z,98560.53
2019-03-09T20:48:12.516Z,98561.42
2019-03-09T20:50:22.993Z,98558.38
2019-03-09T20:52:31.339Z,98557.94
2019-03-09T20:54:37.988Z,98541.38
2019-03-09T20:56:45.630Z,98532.25
2019-03-09T20:58:52.844Z,98528.78
2019-03-09T21:00:59.595Z,98514.84
2019-03-09T21:03:06.321Z,98522.27
2019-03-09T21:05:13.248Z,98517.06
2019-03-09T21:07:21.708Z,98504.02
2019-03-09T21:09:31.235Z,98503.19
2019-03-09T21:11:39.245Z,98517.14
2019-03-09T21:13:47.450Z,98531.55
2019-03-09T21:15:57.405Z,98541.58
2019-03-09T21:18:04.162Z,98545.48
2019-03-09T21:20:12.077Z,98540.71
2019-03-09T21:22:19.332Z,98543.77
2019-03-09T21:24:26.059Z,98534.64
2019-03-09T21:26:32.813Z,98529.46
2019-03-09T21:28:39.557Z,98528.62
2019-03-09T21:30:46.289Z,98532.59
2019-03-09T21:32:54.861Z,98530.45
2019-03-09T21:35:01.583Z,98527.41
2019-03-09T21:37:08.744Z,98517.43
2019-03-09T21:39:16.897Z,98516.59
2019-03-09T21:41:23.737Z,98515.75
2019-03-09T21:43:30.392Z,98506.17
2019-03-09T21:45:37.145Z,98502.28
2019-03-09T21:47:43.966Z,98490.91
2019-03-09T21:49:50.628Z,98494.85
2019-03-09T21:51:57.315Z,98488.77
2019-03-09T21:54:05.843Z,98473.48
2019-03-09T21:56:12.578Z,98466.52
2019-03-09T21:58:19.250Z,98466.52
2019-03-09T22:00:25.917Z,98456.91
2019-03-09T22:02:32.640Z,98451.20
2019-03-09T22:04:39.388Z,98452.97
2019-03-09T22:06:46.053Z,98449.03
2019-03-09T22:08:52.780Z,98452.09
2019-03-09T22:10:59.532Z,98441.62
2019-03-09T22:13:06.871Z,98452.53
2019-03-09T22:15:19.928Z,98449.91
2019-03-09T22:17:26.695Z,98446.42
2019-03-09T22:19:33.346Z,98438.98
2019-03-09T22:21:40.085Z,98444.64
2019-03-09T22:23:48.532Z,98443.30
2019-03-09T22:25:56.137Z,98439.37
2019-03-09T22:28:05.041Z,98435.01
2019-03-09T22:30:17.621Z,98434.12
2019-03-09T22:32:24.328Z,98427.98
2019-03-09T22:34:31.067Z,98428.88
2019-03-09T22:36:37.747Z,98417.06
2019-03-09T22:38:44.880Z,98410.51
2019-03-09T22:40:51.544Z,98396.56
2019-03-09T22:42:59.883Z,98401.78
2019-03-09T22:45:10.655Z,98392.16
2019-03-09T22:47:17.309Z,98387.34
2019-03-09T22:49:24.990Z,98382.11
2019-03-09T22:51:31.911Z,98379.94
2019-03-09T22:53:38.628Z,98368.59
2019-03-09T22:55:45.308Z,98368.16
2019-03-09T22:57:52.268Z,98375.12
2019-03-09T22:59:58.988Z,98376.87
2019-03-09T23:02:06.343Z,98373.84
2019-03-09T23:04:13.080Z,98373.84
2019-03-09T23:06:19.739Z,98362.52
2019-03-09T23:08:26.525Z,98359.45
2019-03-09T23:10:33.185Z,98361.66
2019-03-09T23:12:39.842Z,98352.05
2019-03-09T23:14:46.554Z,98338.98
2019-03-09T23:16:53.269Z,98344.23
2019-03-09T23:18:59.986Z,98333.73
2019-03-09T23:21:06.667Z,98333.75
2019-03-09T23:23:13.311Z,98326.77
2019-03-09T23:25:19.952Z,98322.84
2019-03-09T23:27:26.641Z,98310.18
2019-03-09T23:29:33.382Z,98309.75
2019-03-09T23:31:40.044Z,98299.30
2019-03-09T23:33:47.718Z,98297.98
2019-03-09T23:35:55.387Z,98287.52
2019-03-09T23:38:02.036Z,98284.47
2019-03-09T23:40:12.246Z,98284.47
2019-03-09T23:42:18.972Z,98273.53
2019-03-09T23:44:25.640Z,98269.17
2019-03-09T23:46:32.332Z,98261.77
2019-03-09T23:48:38.979Z,98258.72
2019-03-09T23:50:45.638Z,98248.22
2019-03-09T23:52:52.321Z,98255.21
2019-03-09T23:54:58.983Z,98254.34
2019-03-09T23:57:05.713Z,98252.17
2019-03-09T23:59:12.390Z,98256.50
